Time;durP1;ratioP1;P1;durP2;ratioP2;P2;SDS_P1;SDS_P2;PMS_P1;PMS_P2;Temp;Humidity;BMP_temperature;BMP_pressure;BME280_temperature;BME280_humidity;BME280_pressure;Samples;Min_cycle;Max_cycle;Signal;HPM_P1;HPM_P2
2022/06/20 00:00:11;;;;;;;2.78;0.80;;;14.70;99.90;;;;;;4999125;28;20129;-66
2022/06/20 00:02:41;;;;;;;1.75;0.75;;;14.70;99.90;;;;;;5005937;28;20378;-67
2022/06/20 00:05:11;;;;;;;3.80;0.82;;;14.70;99.90;;;;;;5001447;28;20030;-67
2022/06/20 00:07:36;;;;;;;2.78;0.85;;;14.60;99.90;;;;;;4995203;28;20029;-67
2022/06/20 00:10:02;;;;;;;1.77;0.70;;;14.70;99.90;;;;;;4999683;28;20119;-66
2022/06/20 00:12:31;;;;;;;4.80;1.10;;;14.70;99.90;;;;;;5009877;28;20281;-69
2022/06/20 00:15:04;;;;;;;2.78;0.90;;;14.60;99.90;;;;;;5007525;28;20096;-69
2022/06/20 00:17:30;;;;;;;2.75;0.68;;;14.60;99.90;;;;;;5023624;28;20069;-70
2022/06/20 00:19:56;;;;;;;8.15;1.45;;;14.60;99.90;;;;;;5002417;28;20046;-67
2022/06/20 00:22:22;;;;;;;4.20;0.90;;;14.60;99.90;;;;;;5004141;28;20041;-67
2022/06/20 00:24:48;;;;;;;1.52;0.60;;;14.60;99.90;;;;;;5034830;28;20053;-66
2022/06/20 00:27:13;;;;;;;2.38;0.70;;;14.60;99.90;;;;;;5007845;28;20084;-67
2022/06/20 00:29:41;;;;;;;1.98;0.80;;;14.60;99.90;;;;;;5004691;28;20508;-67
2022/06/20 00:32:09;;;;;;;3.38;0.88;;;14.60;99.90;;;;;;4993062;28;20052;-67
2022/06/20 00:34:35;;;;;;;6.35;1.30;;;14.50;99.90;;;;;;5033879;28;20050;-67
2022/06/20 00:37:01;;;;;;;5.18;0.68;;;14.50;99.90;;;;;;5002322;28;20041;-66
2022/06/20 00:39:27;;;;;;;;;;;14.50;99.90;;;;;;5034770;28;20092;-67
2022/06/20 00:41:53;;;;;;;8.38;0.95;;;14.50;99.90;;;;;;5008848;28;20286;-66
2022/06/20 00:44:33;;;;;;;3.30;0.75;;;14.50;99.90;;;;;;5008528;28;20041;-66
2022/06/20 00:47:04;;;;;;;3.40;0.80;;;14.50;99.90;;;;;;5003080;28;20053;-67
2022/06/20 00:49:43;;;;;;;3.58;0.60;;;14.50;99.90;;;;;;4991588;28;20046;-67
2022/06/20 00:52:27;;;;;;;4.07;0.52;;;14.40;99.90;;;;;;5011363;28;20458;-67
2022/06/20 00:55:02;;;;;;;2.28;0.65;;;14.50;99.90;;;;;;5011063;28;20073;-67
2022/06/20 00:57:36;;;;;;;3.72;1.08;;;14.40;99.90;;;;;;5010714;28;20092;-67
2022/06/20 01:00:25;;;;;;;4.45;0.75;;;14.40;99.90;;;;;;5010571;28;20053;-70
2022/06/20 01:03:03;;;;;;;4.05;0.90;;;14.40;99.90;;;;;;4998702;28;20215;-67
2022/06/20 01:05:37;;;;;;;10.30;1.38;;;14.30;99.90;;;;;;4990631;28;20107;-67
2022/06/20 01:08:17;;;;;;;2.40;0.75;;;14.30;99.90;;;;;;5006627;28;20037;-67
2022/06/20 01:10:50;;;;;;;4.18;0.57;;;14.20;99.90;;;;;;5018276;28;20053;-67
2022/06/20 01:13:19;;;;;;;3.90;0.75;;;14.20;99.90;;;;;;5004098;28;20077;-67
2022/06/20 01:15:47;;;;;;;2.28;1.10;;;14.20;99.90;;;;;;5008709;28;20050;-67
2022/06/20 01:18:26;;;;;;;2.65;0.90;;;14.20;99.90;;;;;;4997917;28;20692;-67
2022/06/20 01:20:55;;;;;;;2.58;0.90;;;14.20;99.90;;;;;;5006126;28;20120;-67
2022/06/20 01:23:45;;;;;;;2.85;0.90;;;14.10;99.90;;;;;;5003879;28;20453;-67
2022/06/20 01:26:38;;;;;;;4.13;0.80;;;14.10;99.90;;;;;;5003860;28;20444;-68
2022/06/20 01:29:07;;;;;;;3.10;0.77;;;14.10;99.90;;;;;;5020717;28;20042;-67
2022/06/20 01:31:41;;;;;;;3.83;0.60;;;14.00;99.90;;;;;;5006735;28;20041;-67
2022/06/20 01:34:07;;;;;;;2.72;0.90;;;14.00;99.90;;;;;;5007361;28;20084;-67
2022/06/20 01:39:23;;;;;;;2.45;0.80;;;14.00;99.90;;;;;;5007205;28;20085;-67
2022/06/20 01:44:40;;;;;;;1.23;0.68;;;14.00;99.90;;;;;;5008915;28;20041;-67
2022/06/20 01:47:05;;;;;;;3.25;0.90;;;14.00;99.90;;;;;;5006172;28;20108;-67
2022/06/20 01:49:33;;;;;;;6.63;1.30;;;13.90;99.90;;;;;;5008818;28;20279;-67
2022/06/20 01:52:12;;;;;;;3.30;0.93;;;13.90;99.90;;;;;;5006219;28;20099;-67
2022/06/20 01:54:47;;;;;;;3.88;0.98;;;13.90;99.90;;;;;;5006070;28;20540;-67
2022/06/20 01:57:14;;;;;;;2.63;1.10;;;13.90;99.90;;;;;;4990923;28;20053;-67
2022/06/20 02:00:03;;;;;;;5.82;0.98;;;13.90;99.90;;;;;;5006755;28;20495;-67
2022/06/20 02:02:33;;;;;;;6.82;1.00;;;13.90;99.90;;;;;;5004462;28;20117;-67
2022/06/20 02:05:03;;;;;;;5.50;0.80;;;13.80;99.90;;;;;;5002627;28;20041;-68
2022/06/20 02:07:33;;;;;;;2.63;0.85;;;13.90;99.90;;;;;;5004928;28;20120;-67
2022/06/20 02:10:03;;;;;;;1.98;0.60;;;13.90;99.90;;;;;;4995316;28;20049;-67
2022/06/20 02:12:32;;;;;;;2.30;0.98;;;13.90;99.90;;;;;;5006762;28;20042;-68
2022/06/20 02:14:59;;;;;;;6.53;0.90;;;13.90;99.90;;;;;;5000208;28;20118;-68
2022/06/20 02:17:35;;;;;;;3.22;0.82;;;13.90;99.90;;;;;;4999359;28;20077;-68
2022/06/20 02:20:06;;;;;;;4.25;1.20;;;13.90;99.90;;;;;;5005771;28;20046;-68
2022/06/20 02:22:35;;;;;;;4.28;1.33;;;13.90;99.90;;;;;;5004766;28;20046;-68
2022/06/20 02:25:12;;;;;;;4.75;0.82;;;13.80;99.90;;;;;;4981301;28;20096;-68
2022/06/20 02:27:53;;;;;;;3.65;1.02;;;13.80;99.90;;;;;;5041634;28;20042;-68
2022/06/20 02:30:19;;;;;;;6.28;0.88;;;13.80;99.90;;;;;;5005749;28;20584;-67
2022/06/20 02:32:58;;;;;;;;;;;13.80;99.90;;;;;;5005897;28;20356;-67
2022/06/20 02:35:24;;;;;;;1.52;0.70;;;13.80;99.90;;;;;;4991003;28;19975;-70
2022/06/20 02:37:50;;;;;;;2.38;0.70;;;13.70;99.90;;;;;;5007005;28;20069;-67
2022/06/20 02:40:19;;;;;;;3.65;0.88;;;13.70;99.90;;;;;;4998602;28;20041;-68
2022/06/20 02:43:00;;;;;;;2.70;1.10;;;13.70;99.90;;;;;;5005963;28;20088;-68
2022/06/20 02:45:28;;;;;;;7.38;1.10;;;13.70;99.90;;;;;;5000927;28;20157;-68
2022/06/20 02:47:58;;;;;;;3.70;0.93;;;13.70;99.90;;;;;;4999994;28;20053;-68
2022/06/20 02:50:28;;;;;;;2.65;0.90;;;13.60;99.90;;;;;;5005321;28;20053;-68
2022/06/20 02:53:07;;;;;;;3.58;1.25;;;13.60;99.90;;;;;;5003513;28;20060;-68
2022/06/20 02:55:35;;;;;;;3.47;1.10;;;13.60;99.90;;;;;;5004352;28;20038;-68
2022/06/20 02:58:14;;;;;;;4.50;1.10;;;13.50;99.90;;;;;;5006899;28;20494;-68
2022/06/20 03:00:57;;;;;;;1.67;0.95;;;13.50;99.90;;;;;;5010233;28;20116;-68
2022/06/20 03:03:33;;;;;;;5.07;1.05;;;13.50;99.90;;;;;;4990245;28;20044;-68
2022/06/20 03:06:00;;;;;;;1.98;0.85;;;13.50;99.90;;;;;;5007044;28;20418;-68
2022/06/20 03:08:26;;;;;;;4.22;1.40;;;13.50;99.90;;;;;;5003724;28;20050;-68
2022/06/20 03:10:54;;;;;;;2.83;1.33;;;13.50;99.90;;;;;;5002138;28;20450;-68
2022/06/20 03:13:21;;;;;;;3.45;0.90;;;13.40;99.90;;;;;;5005203;28;20096;-67
2022/06/20 03:15:49;;;;;;;7.78;1.52;;;13.50;99.90;;;;;;5004054;28;20041;-67
2022/06/20 03:18:16;;;;;;;3.63;1.17;;;13.40;99.90;;;;;;4999003;28;20125;-67
2022/06/20 03:20:43;;;;;;;5.70;1.52;;;13.40;99.90;;;;;;5003563;28;20393;-67
2022/06/20 03:23:10;;;;;;;;;;;13.40;99.90;;;;;;5008130;28;20123;-67
2022/06/20 03:25:37;;;;;;;3.10;0.80;;;13.30;99.90;;;;;;5005668;28;19924;-68
2022/06/20 03:28:04;;;;;;;5.47;1.83;;;13.20;99.90;;;;;;5011357;28;20113;-67
2022/06/20 03:30:36;;;;;;;3.15;0.98;;;13.20;99.90;;;;;;5004087;28;20399;-67
2022/06/20 03:33:05;;;;;;;4.10;1.30;;;13.20;99.90;;;;;;5111967;23;20013;-69
2022/06/20 03:35:33;;;;;;;6.43;1.40;;;13.20;99.90;;;;;;5003816;28;20138;-69
2022/06/20 03:38:05;;;;;;;3.10;1.25;;;13.10;99.90;;;;;;5007790;28;20034;-69
2022/06/20 03:40:31;;;;;;;7.13;1.08;;;13.10;99.90;;;;;;5018417;28;20466;-69
2022/06/20 03:42:59;;;;;;;3.15;1.23;;;13.10;99.90;;;;;;5017025;28;20052;-69
2022/06/20 03:45:28;;;;;;;4.68;1.30;;;13.10;99.90;;;;;;5011915;28;20387;-69
2022/06/20 03:48:06;;;;;;;7.75;1.55;;;13.10;99.90;;;;;;5007055;28;20041;-69
2022/06/20 03:50:44;;;;;;;4.97;1.17;;;13.00;99.90;;;;;;5035088;28;20449;-69
2022/06/20 03:53:24;;;;;;;2.92;1.23;;;13.10;99.90;;;;;;5015221;28;20045;-69
2022/06/20 03:56:04;;;;;;;4.70;1.38;;;13.10;99.90;;;;;;5000538;28;20125;-70
2022/06/20 03:58:36;;;;;;;5.55;1.50;;;13.10;99.90;;;;;;5007688;28;20128;-69
2022/06/20 04:01:10;;;;;;;3.53;1.40;;;13.00;99.90;;;;;;5016209;28;20037;-69
2022/06/20 04:03:59;;;;;;;7.75;1.50;;;13.00;99.90;;;;;;5018117;28;20049;-69
2022/06/20 04:07:06;;;;;;;6.47;1.83;;;13.00;99.90;;;;;;5002314;28;20730;-69
2022/06/20 04:12:50;;;;;;;3.15;1.25;;;13.00;99.90;;;;;;4975723;28;20514;-69
2022/06/20 04:15:20;;;;;;;5.13;1.35;;;13.00;99.90;;;;;;5018893;28;20170;-69
2022/06/20 04:21:09;;;;;;;3.80;1.48;;;13.00;99.90;;;;;;5011924;28;20053;-69
2022/06/20 04:24:00;;;;;;;5.75;1.80;;;13.10;99.90;;;;;;5009651;28;20041;-69
2022/06/20 04:26:42;;;;;;;4.70;1.70;;;13.10;99.90;;;;;;5002188;28;20132;-69
2022/06/20 04:29:20;;;;;;;3.08;1.10;;;13.10;99.90;;;;;;5013081;28;20057;-69
2022/06/20 04:31:47;;;;;;;3.78;1.58;;;13.20;99.90;;;;;;5017262;28;20038;-69
2022/06/20 04:34:51;;;;;;;4.45;1.58;;;13.20;99.90;;;;;;4991234;28;20042;-69
2022/06/20 04:37:27;;;;;;;6.03;1.63;;;13.20;99.90;;;;;;4997401;28;20287;-69
2022/06/20 04:40:38;;;;;;;8.45;2.10;;;13.20;99.90;;;;;;5012414;28;20120;-69
2022/06/20 04:43:36;;;;;;;4.68;1.35;;;13.20;99.90;;;;;;4974461;28;20049;-69
2022/06/20 04:46:32;;;;;;;5.43;2.03;;;13.20;99.90;;;;;;5021664;28;20481;-70
2022/06/20 04:49:00;;;;;;;3.83;1.45;;;13.20;99.90;;;;;;5016899;28;20036;-70
2022/06/20 04:51:38;;;;;;;4.93;1.63;;;13.20;99.90;;;;;;5022335;28;20052;-70
2022/06/20 04:54:09;;;;;;;5.80;1.95;;;13.30;99.90;;;;;;5026237;28;20064;-70
2022/06/20 04:56:35;;;;;;;3.42;1.67;;;13.30;99.90;;;;;;5025859;28;20045;-70
2022/06/20 04:59:09;;;;;;;8.20;1.85;;;13.30;99.90;;;;;;5028427;28;20037;-70
2022/06/20 05:01:36;;;;;;;7.75;1.80;;;13.30;99.90;;;;;;5014868;28;20129;-70
2022/06/20 05:04:22;;;;;;;4.43;1.95;;;13.30;99.90;;;;;;5016662;28;20033;-70
2022/06/20 05:06:48;;;;;;;6.95;1.67;;;13.40;99.90;;;;;;5009541;28;20370;-70
2022/06/20 05:09:23;;;;;;;5.25;1.77;;;13.40;99.90;;;;;;5011363;28;20034;-69
2022/06/20 05:11:53;;;;;;;5.93;1.90;;;13.50;99.90;;;;;;5017618;28;20038;-70
2022/06/20 05:14:31;;;;;;;8.13;2.72;;;13.50;99.90;;;;;;5010969;28;20499;-70
2022/06/20 05:16:57;;;;;;;6.43;1.80;;;13.50;99.90;;;;;;5020386;28;20117;-70
2022/06/20 05:19:35;;;;;;;9.57;1.77;;;13.50;99.90;;;;;;5017164;28;20058;-70
2022/06/20 05:22:04;;;;;;;12.60;2.17;;;13.50;99.90;;;;;;5022958;28;20091;-70
2022/06/20 05:24:34;;;;;;;9.45;2.30;;;13.50;99.90;;;;;;5022356;28;20034;-70
2022/06/20 05:27:09;;;;;;;5.45;2.10;;;13.60;99.90;;;;;;5015475;28;20464;-70
2022/06/20 05:29:38;;;;;;;5.40;2.00;;;13.60;99.90;;;;;;4999688;28;20044;-70
2022/06/20 05:32:11;;;;;;;8.95;1.73;;;13.70;99.90;;;;;;5017368;28;20505;-70
2022/06/20 05:35:01;;;;;;;6.75;1.88;;;13.70;99.90;;;;;;5012601;28;20060;-70
2022/06/20 05:38:20;;;;;;;6.20;2.03;;;13.70;99.90;;;;;;4975923;28;20390;-70
2022/06/20 05:40:49;;;;;;;5.53;1.95;;;13.80;99.90;;;;;;4922591;28;20459;-70
2022/06/20 05:43:20;;;;;;;7.60;1.80;;;13.80;99.90;;;;;;5026358;28;20072;-70
2022/06/20 05:46:19;;;;;;;9.05;1.75;;;13.90;99.90;;;;;;5019632;28;20072;-69
2022/06/20 05:48:52;;;;;;;6.25;1.80;;;13.90;99.90;;;;;;5013947;28;20052;-70
2022/06/20 05:51:21;;;;;;;7.18;1.73;;;13.90;99.90;;;;;;5017038;28;20049;-70
2022/06/20 05:53:57;;;;;;;3.05;1.30;;;14.00;99.90;;;;;;5013122;28;20045;-70
2022/06/20 05:56:33;;;;;;;4.40;2.13;;;14.00;99.90;;;;;;5014988;28;20045;-70
2022/06/20 05:59:00;;;;;;;8.35;2.13;;;14.10;99.90;;;;;;5016449;28;20041;-69
2022/06/20 06:01:33;;;;;;;9.40;2.38;;;14.10;99.90;;;;;;5013717;28;20509;-70
2022/06/20 06:04:36;;;;;;;8.30;1.80;;;14.20;99.90;;;;;;5017780;28;20065;-70
2022/06/20 06:07:34;;;;;;;4.18;1.77;;;14.20;99.90;;;;;;5007210;28;20079;-70
2022/06/20 06:10:20;;;;;;;;;;;14.30;99.90;;;;;;5012128;28;20678;-69
2022/06/20 06:12:55;;;;;;;7.85;1.70;;;14.30;99.90;;;;;;5013310;28;20434;-70
2022/06/20 06:18:57;;;;;;;6.78;1.58;;;14.50;99.90;;;;;;5010434;28;20289;-69
2022/06/20 06:21:24;;;;;;;7.97;1.65;;;14.50;99.90;;;;;;5023047;28;20049;-70
2022/06/20 06:23:49;;;;;;;6.80;2.05;;;14.60;99.90;;;;;;5034554;28;20052;-70
2022/06/20 06:26:17;;;;;;;4.15;1.63;;;14.60;99.90;;;;;;5015402;28;20037;-70
2022/06/20 06:28:44;;;;;;;5.43;1.80;;;14.60;99.90;;;;;;4999501;28;20041;-70
2022/06/20 06:31:17;;;;;;;5.65;1.73;;;14.70;99.90;;;;;;5016002;28;20041;-69
2022/06/20 06:34:11;;;;;;;6.53;1.38;;;14.80;99.90;;;;;;5017881;28;20049;-69
2022/06/20 06:37:11;;;;;;;5.30;1.52;;;14.90;99.90;;;;;;5009561;28;20099;-70
2022/06/20 06:39:57;;;;;;;8.48;2.40;;;15.00;99.90;;;;;;4999726;28;20171;-70
2022/06/20 06:42:23;;;;;;;5.25;1.58;;;15.10;99.90;;;;;;5015728;28;20133;-70
2022/06/20 06:44:51;;;;;;;5.20;1.85;;;15.10;99.90;;;;;;5020399;28;20124;-69
2022/06/20 06:48:10;;;;;;;5.45;2.17;;;15.10;99.90;;;;;;5011937;28;20050;-69
2022/06/20 06:50:55;;;;;;;4.75;1.40;;;15.10;99.90;;;;;;4959244;28;20063;-69
2022/06/20 06:53:30;;;;;;;7.15;1.90;;;15.10;99.90;;;;;;5020362;28;20037;-70
2022/06/20 06:56:14;;;;;;;4.38;1.33;;;15.20;99.90;;;;;;5020499;28;20080;-70
2022/06/20 06:59:05;;;;;;;3.67;1.50;;;15.20;99.90;;;;;;5020085;28;20033;-70
2022/06/20 07:01:40;;;;;;;3.28;1.63;;;15.20;99.90;;;;;;5021344;28;20049;-70
2022/06/20 07:04:20;;;;;;;6.63;1.25;;;15.10;99.90;;;;;;5015971;28;20403;-70
2022/06/20 07:07:01;;;;;;;5.53;1.33;;;15.20;99.90;;;;;;5015648;28;20037;-69
2022/06/20 07:09:42;;;;;;;6.40;1.40;;;15.30;99.90;;;;;;5014664;28;20077;-69
2022/06/20 07:12:32;;;;;;;6.40;2.00;;;15.30;99.90;;;;;;5014807;28;20096;-69
2022/06/20 07:15:10;;;;;;;4.22;1.20;;;15.40;99.90;;;;;;5019424;28;20044;-70
2022/06/20 07:17:47;;;;;;;4.28;1.30;;;15.50;99.90;;;;;;5016787;28;20069;-70
2022/06/20 07:20:13;;;;;;;5.07;1.58;;;15.50;99.90;;;;;;5011553;28;20045;-69
2022/06/20 07:22:42;;;;;;;5.70;1.40;;;15.60;99.90;;;;;;5022801;28;20037;-69
2022/06/20 07:25:23;;;;;;;7.03;1.25;;;15.60;99.90;;;;;;5023619;28;20050;-69
2022/06/20 07:28:01;;;;;;;4.22;1.27;;;15.70;99.90;;;;;;5013198;28;20533;-69
2022/06/20 07:30:31;;;;;;;4.55;1.17;;;15.80;99.90;;;;;;5021439;28;20045;-69
2022/06/20 07:33:14;;;;;;;5.60;1.40;;;15.90;99.90;;;;;;5013774;28;20044;-70
2022/06/20 07:35:47;;;;;;;2.92;0.95;;;15.80;99.90;;;;;;4995845;28;20038;-70
2022/06/20 07:38:30;;;;;;;3.00;0.80;;;15.80;99.90;;;;;;5009444;28;20156;-69
2022/06/20 07:41:01;;;;;;;2.25;1.00;;;15.70;99.90;;;;;;5015695;28;20045;-69
2022/06/20 07:43:35;;;;;;;4.10;0.90;;;15.80;99.90;;;;;;5009729;28;20291;-69
2022/06/20 07:46:10;;;;;;;2.90;1.20;;;15.80;99.90;;;;;;5014475;28;20080;-70
2022/06/20 07:48:39;;;;;;;3.70;0.95;;;15.80;99.90;;;;;;5010618;28;20553;-69
2022/06/20 07:51:21;;;;;;;2.53;0.93;;;15.90;99.90;;;;;;5018729;28;20099;-69
2022/06/20 07:54:27;;;;;;;6.47;1.83;;;15.90;99.90;;;;;;5019169;28;20402;-69
2022/06/20 07:57:12;;;;;;;3.03;1.20;;;16.00;99.90;;;;;;4905945;29;20043;-69
2022/06/20 07:59:45;;;;;;;3.22;1.20;;;16.10;99.90;;;;;;5008933;28;20091;-70
2022/06/20 08:02:16;;;;;;;5.60;1.00;;;16.10;99.90;;;;;;5016359;28;20100;-74
2022/06/20 08:04:46;;;;;;;4.18;1.13;;;16.20;99.90;;;;;;5013147;28;24188;-69
2022/06/20 08:07:24;;;;;;;2.80;0.90;;;16.20;99.90;;;;;;4998151;28;20136;-69
2022/06/20 08:09:52;;;;;;;7.45;1.45;;;16.30;99.90;;;;;;5008322;28;20044;-70
2022/06/20 08:12:25;;;;;;;4.55;1.02;;;16.40;99.90;;;;;;5015578;28;20064;-69
2022/06/20 08:15:01;;;;;;;1.38;0.90;;;16.50;99.90;;;;;;5020140;28;20112;-69
2022/06/20 08:17:30;;;;;;;3.03;1.40;;;16.50;99.90;;;;;;5007133;28;20064;-69
2022/06/20 08:19:57;;;;;;;7.45;1.23;;;16.60;99.90;;;;;;5002164;28;20057;-70
2022/06/20 08:22:47;;;;;;;6.07;1.10;;;16.70;99.90;;;;;;5010702;28;20057;-70
2022/06/20 08:25:24;;;;;;;1.73;0.70;;;16.80;99.90;;;;;;5016642;28;20057;-70
2022/06/20 08:28:00;;;;;;;4.60;1.00;;;16.80;99.90;;;;;;5019345;28;20499;-69
2022/06/20 08:30:58;;;;;;;3.05;1.00;;;16.80;99.90;;;;;;5019836;28;20091;-69
2022/06/20 08:33:56;;;;;;;4.82;1.40;;;16.80;99.90;;;;;;4967282;28;20136;-69
2022/06/20 08:36:30;;;;;;;3.42;1.40;;;16.70;99.90;;;;;;5007820;28;20044;-69
2022/06/20 08:39:09;;;;;;;6.05;1.10;;;16.70;99.90;;;;;;5010598;28;20205;-69
2022/06/20 08:41:52;;;;;;;4.43;0.98;;;16.70;99.90;;;;;;5012903;28;20054;-70
2022/06/20 08:44:49;;;;;;;5.25;1.42;;;16.80;99.90;;;;;;5017795;28;20494;-70
2022/06/20 08:47:29;;;;;;;2.60;0.90;;;16.90;99.90;;;;;;5014977;28;20038;-69
2022/06/20 08:50:10;;;;;;;2.00;0.90;;;17.00;99.90;;;;;;5012275;28;20066;-70
2022/06/20 08:53:03;;;;;;;4.00;0.85;;;17.00;99.90;;;;;;5015747;28;20497;-69
2022/06/20 08:56:13;;;;;;;1.83;0.85;;;17.00;99.90;;;;;;5014272;28;20046;-69
2022/06/20 08:58:46;;;;;;;9.43;1.15;;;16.90;99.90;;;;;;4958976;28;20135;-70
2022/06/20 09:01:44;;;;;;;6.75;1.23;;;16.80;99.90;;;;;;5014308;28;20087;-70
2022/06/20 09:04:29;;;;;;;4.80;1.48;;;16.80;99.90;;;;;;4940282;28;20203;-70
2022/06/20 09:07:13;;;;;;;6.20;1.25;;;16.60;99.90;;;;;;5007222;28;20398;-69
2022/06/20 09:10:02;;;;;;;5.10;1.10;;;16.60;99.90;;;;;;5004334;28;20052;-70
2022/06/20 09:12:46;;;;;;;3.90;1.20;;;16.70;99.90;;;;;;5019080;28;20397;-69
2022/06/20 09:15:34;;;;;;;3.20;1.10;;;16.90;99.90;;;;;;5014815;28;20128;-69
2022/06/20 09:18:13;;;;;;;4.57;1.00;;;17.00;99.90;;;;;;5016059;28;20096;-72
2022/06/20 09:21:12;;;;;;;2.60;0.93;;;17.10;99.90;;;;;;5021311;28;20176;-70
2022/06/20 09:24:05;;;;;;;3.20;0.90;;;17.10;99.90;;;;;;5017430;28;21238;-70
2022/06/20 09:26:48;;;;;;;3.95;0.82;;;17.10;99.90;;;;;;5020486;28;20080;-70
2022/06/20 09:29:21;;;;;;;3.42;0.73;;;17.10;99.90;;;;;;5024018;28;20514;-69
2022/06/20 09:32:05;;;;;;;5.13;1.63;;;17.20;99.90;;;;;;5020881;28;20338;-69
2022/06/20 09:34:39;;;;;;;2.22;0.70;;;17.30;99.90;;;;;;5070397;23;20042;-70
2022/06/20 09:37:42;;;;;;;2.58;0.95;;;17.50;99.90;;;;;;5008012;28;20038;-70
2022/06/20 09:40:36;;;;;;;7.88;1.00;;;17.70;99.90;;;;;;4994113;28;20456;-70
2022/06/20 09:43:28;;;;;;;4.22;1.10;;;17.80;99.90;;;;;;4996176;28;20100;-70
2022/06/20 09:46:32;;;;;;;3.55;1.13;;;17.90;99.90;;;;;;5001115;28;20536;-70
2022/06/20 09:49:19;;;;;;;2.67;1.00;;;17.90;99.90;;;;;;4963459;28;20046;-74
2022/06/20 09:51:55;;;;;;;3.08;1.10;;;17.80;99.90;;;;;;4993301;28;20073;-70
2022/06/20 09:54:33;;;;;;;3.65;1.40;;;17.70;99.90;;;;;;5000975;28;22174;-70
2022/06/20 09:57:30;;;;;;;2.10;0.98;;;17.60;99.90;;;;;;4998072;28;20514;-70
2022/06/20 10:00:16;;;;;;;3.55;0.90;;;17.70;99.90;;;;;;4996709;28;20077;-70
2022/06/20 10:02:56;;;;;;;5.03;1.27;;;17.80;99.90;;;;;;4998928;28;20045;-70
2022/06/20 10:05:42;;;;;;;4.25;0.90;;;17.90;99.90;;;;;;4984871;28;20061;-70
2022/06/20 10:08:30;;;;;;;2.15;0.80;;;18.00;99.90;;;;;;4998682;28;20085;-69
2022/06/20 10:11:10;;;;;;;6.43;0.93;;;18.00;99.90;;;;;;4990339;28;20395;-70
2022/06/20 10:13:50;;;;;;;6.18;1.25;;;18.20;99.90;;;;;;5000759;28;20046;-73
2022/06/20 10:16:41;;;;;;;3.97;0.98;;;18.20;99.90;;;;;;4993746;28;20406;-76
2022/06/20 10:19:36;;;;;;;6.05;0.98;;;18.10;99.90;;;;;;4994178;28;20330;-72
2022/06/20 10:22:13;;;;;;;4.53;1.10;;;18.00;99.90;;;;;;5000739;28;20053;-72
2022/06/20 10:25:06;;;;;;;7.10;1.23;;;17.70;99.90;;;;;;5003962;28;20030;-71
2022/06/20 10:27:45;;;;;;;5.68;1.83;;;17.70;99.90;;;;;;4998802;28;20077;-71
2022/06/20 10:30:19;;;;;;;5.20;1.33;;;17.80;99.90;;;;;;4999118;28;20447;-70
2022/06/20 10:32:48;;;;;;;4.47;1.00;;;18.00;99.90;;;;;;5008152;28;20060;-71
2022/06/20 10:35:44;;;;;;;3.05;0.95;;;18.10;99.90;;;;;;4998502;28;20066;-70
2022/06/20 10:38:18;;;;;;;2.50;0.77;;;18.20;99.90;;;;;;4972374;28;20054;-70
2022/06/20 10:41:01;;;;;;;5.72;1.05;;;18.20;99.90;;;;;;4990953;28;20077;-70
2022/06/20 10:43:38;;;;;;;2.65;0.90;;;18.20;99.90;;;;;;5000125;28;20049;-70
2022/06/20 10:46:18;;;;;;;;;;;18.10;99.90;;;;;;5010016;28;20076;-70
2022/06/20 10:49:00;;;;;;;3.55;0.80;;;18.00;99.90;;;;;;5000396;28;19939;-71
2022/06/20 10:51:48;;;;;;;3.63;0.80;;;18.20;99.90;;;;;;5009203;28;20052;-70
2022/06/20 10:54:30;;;;;;;6.22;1.00;;;18.30;99.90;;;;;;4994091;28;20095;-71
2022/06/20 10:57:14;;;;;;;2.63;1.05;;;18.40;99.90;;;;;;4981915;28;21300;-70
2022/06/20 10:59:44;;;;;;;3.90;1.20;;;18.30;99.90;;;;;;5002426;28;20114;-70
2022/06/20 11:02:34;;;;;;;3.83;1.05;;;18.30;99.90;;;;;;4995168;28;20133;-70
2022/06/20 11:05:17;;;;;;;3.20;1.00;;;18.20;99.90;;;;;;4994446;28;20510;-70
2022/06/20 11:08:13;;;;;;;4.30;1.40;;;18.00;99.90;;;;;;5001666;28;20462;-70
2022/06/20 11:11:01;;;;;;;6.93;1.00;;;17.90;99.90;;;;;;5001386;28;20214;-70
2022/06/20 11:13:37;;;;;;;4.15;1.65;;;17.80;99.90;;;;;;4999750;28;20046;-70
2022/06/20 11:16:36;;;;;;;5.50;0.90;;;17.80;99.90;;;;;;5004475;28;20522;-70
2022/06/20 11:19:43;;;;;;;4.85;2.45;;;17.80;99.90;;;;;;5011243;28;20038;-70
2022/06/20 11:22:18;;;;;;;4.40;1.50;;;18.10;99.90;;;;;;5008160;28;20057;-70
2022/06/20 11:24:47;;;;;;;4.93;0.93;;;18.20;99.90;;;;;;4987286;28;20057;-71
2022/06/20 11:27:31;;;;;;;3.35;1.30;;;18.30;99.90;;;;;;5008379;28;20422;-71
2022/06/20 11:30:27;;;;;;;5.60;1.00;;;18.40;99.90;;;;;;4993323;28;20564;-70
2022/06/20 11:34:00;;;;;;;1.15;0.88;;;18.70;99.90;;;;;;4986639;28;20038;-70
2022/06/20 11:36:14;;;;;;;2.08;0.90;;;18.80;99.90;;;;;;4940523;28;20514;-70
2022/06/20 11:39:08;;;;;;;2.40;1.10;;;18.70;99.90;;;;;;4993503;28;20123;-70
2022/06/20 11:41:48;;;;;;;3.30;1.05;;;18.60;99.90;;;;;;4997202;28;20500;-70
2022/06/20 11:44:27;;;;;;;4.32;1.10;;;18.50;99.90;;;;;;5001777;28;20048;-70
2022/06/20 11:47:08;;;;;;;4.60;1.08;;;18.50;99.90;;;;;;5000290;28;20521;-70
2022/06/20 11:50:15;;;;;;;2.88;1.00;;;18.40;99.90;;;;;;5000523;28;20038;-71
2022/06/20 11:52:50;;;;;;;2.03;0.82;;;18.30;99.90;;;;;;4984422;28;20461;-70
2022/06/20 11:55:24;;;;;;;3.10;0.85;;;18.20;99.90;;;;;;4999945;28;20030;-70
2022/06/20 11:58:00;;;;;;;2.55;1.30;;;18.30;99.90;;;;;;4997617;28;20042;-71
2022/06/20 12:00:30;;;;;;;2.77;1.10;;;18.40;99.90;;;;;;4989136;28;20038;-71
2022/06/20 12:03:21;;;;;;;2.00;1.13;;;18.40;99.90;;;;;;5003546;28;20292;-70
2022/06/20 12:05:54;;;;;;;1.98;0.90;;;18.30;99.90;;;;;;4996077;28;20057;-71
2022/06/20 12:08:38;;;;;;;2.17;1.52;;;18.30;99.90;;;;;;5006175;28;20047;-70
2022/06/20 12:11:39;;;;;;;3.95;1.10;;;18.20;99.90;;;;;;4999419;28;20078;-70
2022/06/20 12:14:31;;;;;;;2.70;1.38;;;18.20;99.90;;;;;;5001831;28;20056;-70
2022/06/20 12:17:23;;;;;;;1.65;0.80;;;18.20;99.90;;;;;;4996488;28;20118;-71
2022/06/20 12:25:34;;;;;;;6.50;1.13;;;18.10;99.90;;;;;;5008192;28;20498;-70
2022/06/20 12:28:00;;;;;;;4.22;1.02;;;18.20;99.90;;;;;;5004130;28;20037;-70
2022/06/20 12:30:26;;;;;;;3.50;0.77;;;18.30;99.90;;;;;;4995818;28;20183;-70
2022/06/20 12:32:55;;;;;;;4.05;1.13;;;18.20;99.90;;;;;;5018957;28;20133;-74
2022/06/20 12:35:40;;;;;;;4.80;1.33;;;18.30;99.90;;;;;;4986151;28;20054;-71
2022/06/20 12:38:20;;;;;;;2.47;1.00;;;18.30;99.90;;;;;;4989089;28;20747;-70
2022/06/20 12:40:51;;;;;;;4.47;1.08;;;18.20;99.90;;;;;;4997751;28;20410;-71
2022/06/20 12:43:26;;;;;;;2.88;1.08;;;18.20;99.90;;;;;;5024287;28;20053;-70
2022/06/20 12:46:10;;;;;;;5.40;1.20;;;18.30;99.90;;;;;;5004224;28;20068;-70
2022/06/20 12:48:52;;;;;;;1.92;0.88;;;18.50;99.90;;;;;;4988090;28;20038;-70
2022/06/20 12:51:49;;;;;;;4.03;0.95;;;18.80;99.90;;;;;;4985975;28;20049;-70
2022/06/20 12:54:38;;;;;;;3.75;1.08;;;19.00;99.90;;;;;;5004046;28;20077;-71
2022/06/20 12:57:09;;;;;;;1.77;1.02;;;19.20;99.90;;;;;;5001770;28;20045;-70
2022/06/20 12:59:44;;;;;;;1.77;1.02;;;19.30;99.90;;;;;;4996259;28;20438;-71
2022/06/20 13:02:28;;;;;;;4.30;1.55;;;19.40;99.90;;;;;;5000172;28;20088;-71
2022/06/20 13:05:20;;;;;;;3.13;1.17;;;19.60;99.90;;;;;;5002497;28;20538;-71
2022/06/20 13:08:20;;;;;;;2.47;1.05;;;19.70;99.90;;;;;;4997058;28;20049;-70
2022/06/20 13:10:58;;;;;;;3.58;1.00;;;19.60;99.90;;;;;;4994548;28;20070;-71
2022/06/20 13:13:45;;;;;;;2.83;1.00;;;19.40;99.90;;;;;;5000146;28;20045;-70
2022/06/20 13:16:31;;;;;;;3.17;0.80;;;19.50;99.90;;;;;;4990792;28;20249;-70
2022/06/20 13:19:10;;;;;;;3.42;1.00;;;19.60;99.90;;;;;;4994444;28;20425;-70
2022/06/20 13:21:47;;;;;;;2.50;0.95;;;19.70;99.90;;;;;;5001432;28;20050;-70
2022/06/20 13:24:35;;;;;;;2.90;0.85;;;19.50;99.90;;;;;;5000994;28;20197;-70
2022/06/20 13:27:19;;;;;;;;;;;19.50;99.90;;;;;;4989375;28;20041;-70
2022/06/20 13:29:54;;;;;;;2.60;0.80;;;19.60;99.90;;;;;;5004724;28;20405;-71
2022/06/20 13:32:35;;;;;;;2.60;0.60;;;19.70;99.90;;;;;;4996614;28;20069;-71
2022/06/20 13:35:23;;;;;;;2.75;1.00;;;19.80;99.40;;;;;;4991312;28;20037;-70
2022/06/20 13:38:02;;;;;;;3.75;1.00;;;19.90;99.80;;;;;;4993019;28;20052;-70
2022/06/20 13:41:01;;;;;;;1.38;0.90;;;20.00;99.90;;;;;;4990413;28;20085;-70
2022/06/20 13:43:51;;;;;;;2.38;0.93;;;20.20;99.50;;;;;;5005794;28;20080;-70
2022/06/20 13:46:35;;;;;;;5.13;0.80;;;20.40;99.20;;;;;;5020452;28;20041;-71
2022/06/20 13:49:26;;;;;;;1.80;0.77;;;20.50;98.90;;;;;;4988918;28;21146;-70
2022/06/20 13:52:18;;;;;;;1.27;0.55;;;20.70;96.80;;;;;;5000813;28;20197;-70
2022/06/20 13:55:24;;;;;;;1.48;0.50;;;20.70;96.00;;;;;;5011126;28;20104;-71
2022/06/20 13:58:12;;;;;;;2.00;0.52;;;20.70;93.70;;;;;;5015383;28;20525;-70
2022/06/20 14:00:38;;;;;;;3.05;0.90;;;20.70;93.00;;;;;;5005400;28;20054;-71
2022/06/20 14:03:29;;;;;;;4.72;1.13;;;20.70;94.90;;;;;;5005386;28;20050;-71
2022/06/20 14:06:27;;;;;;;2.80;0.90;;;20.70;93.00;;;;;;5001977;28;20053;-71
2022/06/20 14:09:00;;;;;;;4.72;1.15;;;20.70;95.20;;;;;;4986908;28;20046;-70